Bexar, Arkansas
Current Conditions -  °F | °C
As of 8:53 AM on Saturday 22 Nov 2014 (Local Time) from KBPK Reporting Station
Overcast Overcast  
Wind Chill: 56°   Ceiling: 2500
Heat Index: 56°   Visibility: 9mi
Dew Point: 47°   Wind: 10mph
Humidity: 72%   Direction: 190°S
Pressure: 30.13"   Gusts: 20mph
Location:  36.29°N, 92°W
Report Text: KBPK 221453Z AUTO 19009G17KT 9SM OVC025 13/08 A3013 RMK AO2 SLP202 T01330083 55004
Loading
Personal Weather Stations






























Interactive Weather Map New forecast layout! Learn more

10-Day Weather Forecast

Advertisements
Track Severe Weather on mobile